Beaver, Ohio
Current Conditions -  °F | °C
As of 12:54 AM on Friday 28 Nov 2014 (Local Time) from KRZT Reporting Station
Light Snow Light Snow  
Wind Chill: 18°   Ceiling: 4000
Heat Index: 28°   Visibility: 5mi
Dew Point: 23°   Wind: 12mph
Humidity: 80%   Direction: 300°WNW
Pressure: 30.36"   Gusts: NA
Location:  39.03°N, 82.82°W
Report Text: KRZT 280554Z AUTO 30010KT 5SM -SN SCT022 OVC040 M02/M05 A3036 RMK AO2
Loading
Personal Weather Stations






























Interactive Weather Map New forecast layout! Learn more

10-Day Weather Forecast

Advertisements
Track Severe Weather on mobile